Airfield :
LOGIN :

Register | Disclaimer

   EN    FR    IT 

 










Legend :    VFR   Marginal VFR   IFR   Intensive IFR   Very Intensive IFR
Visi :
Ceiling :
>= 8 km
>= 3000ft
5 to 8 km
1000 to 3000 ft
1500m to 5 km
500 to 1000 ft
800 to 1500m
200 to 500 ft
< 800m
< 200 ft
Symbols :   Thunderstorms  Fog  Heavy snow  Heavy precipitations  Wind > 20 kt
SIGMETs :     Misc.  Thunderstorms  Icing  Turbulence  Mountain Waves  Volcanic Ashes







- Airport Elevation : 2595 ft
- IATA code : SLM


LESA - Salamanca Matacan

CURRENT METAR :
  • 190200Z AUTO 33002KT 6000 FEW011/// BKN017/// 05/04 Q1020

EXPIRED METARs :
  • 190130Z AUTO 00000KT 7000 NCD 04/03 Q1020
  • 190100Z AUTO 00000KT 7000 NCD 05/03 Q1019
  • 190030Z AUTO 00000KT 7000 NCD 04/03 Q1019
  • 190000Z AUTO 00000KT 7000 NSC 05/04 Q1019
  • 182330Z AUTO 00000KT 7000 NSC 05/04 Q1019

TAF TAF LESA
Valid from the 19 at 00:00 until the 20 at 00:00 UTC


182300Z 1900/1924 VRB05KT CAVOK TX13/1915Z TNM01/1906Z
PROB40
TEMPO 1900/1910 3000 BR BKN006
PROB30
TEMPO 1904/1910 0100 FG VV001
No reported NOTAMs for that airfield.
3 SIGMETs reported for the Madrid FIR (LECM) :
 
Severe turbulence
LECM SIGMET 9 VALID 190000/190400 LEVA
LECM MADRID FIR/UIR SEV TURB FCST WI N4433 W00548 - N4156 W00746 - N4130 W00623 - N4001 W00657 - N40 W00527 - N4342 W00212 - N4433 W00548 FL180/300 MOV E 20KT NC=
Severe turbulence
LECM SIGMET 10 VALID 190000/190400 LEVA
LECM MADRID FIR/UIR SEV TURB FCST WI N3959 W00652 - N3959 W00523 - N3554 W00631 - N3553 W00726 - N3959 W00652 FL180/300 MOV E 20KT NC=
Severe turbulence
LECM SIGMET 1 VALID 190400/190800 LEVA
LECM MADRID FIR/UIR SEV TURB FCST WI N4410 W00339 - N4002 W00653 - N3708 W00723 - N3626 W00625 - N4326 W00143 - N4410 W00339 FL180/300 MOV E 20KT NC=



MET'MAP, your aeronautical weather chart ! - Copyright ORBIFLY December 2007 - Disclaimer

ORBIFLY MET'MAP TEAM :

Programming & Development : Alexandra Zaïnal
Concept & Development : Baudouin d'Aumeries
Co-Development & Prog : Marc-Olivier Méhu
Technical & hardware support : Manuel Goepfert

Contact : metmap@orbifly.com




SOURCES & CREDITS :

   NOAA